Metar Aviation Weather Data EGNR Hawarden

11°C Temp
9°C Dewpoint
88% Humidity
Temperature
10 KM/H
6 MPH
5 KTS
140°
South East

Wind Speed
Partly Cloudy
Conditions
Pressure 1016 (hPa) - 30 (in)
Visibility 6.2 (mi) - 10.0 (km)

Current Conditions
EGNR
Hawarden 6 km (3.2 mi)
Metar :EGNR 151950Z 14005KT 9999 FEW016 SCT035 11/09 Q1016
Mon 15th October 20:50 pm

Airport
  Metar Aviation API Data Provided by https://www.checkwx.com/ PHP scripts by weather34.com ©2018